Time;durP1;ratioP1;P1;durP2;ratioP2;P2;SDS_P1;SDS_P2;PMS_P1;PMS_P2;Temp;Humidity;BMP_temperature;BMP_pressure;BME280_temperature;BME280_humidity;BME280_pressure;Samples;Min_cycle;Max_cycle;Signal;HPM_P1;HPM_P2
2022/09/15 00:01:44;;;;;;;0.60;0.53;;;19.00;99.90;;;;;;5073601;28;20524;-80
2022/09/15 00:04:10;;;;;;;0.30;0.30;;;19.00;99.90;;;;;;5072631;28;20197;-80
2022/09/15 00:06:35;;;;;;;0.47;0.47;;;19.00;99.90;;;;;;5072703;28;20675;-80
2022/09/15 00:09:02;;;;;;;0.43;0.43;;;19.00;99.90;;;;;;5073471;28;20216;-80
2022/09/15 00:11:31;;;;;;;0.37;0.30;;;18.90;99.90;;;;;;5072784;28;20254;-80
2022/09/15 00:14:00;;;;;;;0.30;0.30;;;18.90;99.90;;;;;;5072091;28;20219;-80
2022/09/15 00:16:27;;;;;;;0.40;0.40;;;18.90;99.90;;;;;;5073653;28;20987;-80
2022/09/15 00:18:53;;;;;;;4.63;1.03;;;18.80;99.90;;;;;;5073235;28;20173;-81
2022/09/15 00:21:22;;;;;;;0.47;0.33;;;18.70;99.90;;;;;;5074316;28;20176;-80
2022/09/15 00:23:48;;;;;;;0.30;0.30;;;18.60;99.90;;;;;;5072282;28;20204;-80
2022/09/15 00:26:16;;;;;;;0.13;0.13;;;18.60;99.90;;;;;;5073759;28;20181;-80
2022/09/15 00:28:43;;;;;;;0.40;0.40;;;18.60;99.90;;;;;;5072975;28;20592;-80
2022/09/15 00:31:13;;;;;;;0.10;0.10;;;18.60;99.90;;;;;;5073353;28;20276;-80
2022/09/15 00:33:39;;;;;;;0.33;0.33;;;18.60;99.90;;;;;;5072173;28;20294;-80
2022/09/15 00:36:07;;;;;;;0.20;0.20;;;18.60;99.90;;;;;;5073202;28;20191;-81
2022/09/15 00:38:34;;;;;;;0.60;0.60;;;18.60;99.90;;;;;;5072797;28;20182;-80
2022/09/15 00:41:01;;;;;;;0.40;0.20;;;18.60;99.90;;;;;;5074335;28;20187;-80
2022/09/15 00:43:48;;;;;;;0.13;0.13;;;18.60;99.90;;;;;;5074045;28;20963;-80
2022/09/15 00:46:15;;;;;;;0.10;0.10;;;18.60;99.90;;;;;;5072369;28;20751;-80
2022/09/15 00:48:49;;;;;;;0.40;0.40;;;18.60;99.90;;;;;;5074601;28;20244;-80
2022/09/15 00:51:20;;;;;;;0.30;0.30;;;18.60;99.90;;;;;;5074248;28;20228;-81
2022/09/15 00:53:47;;;;;;;0.20;0.20;;;18.60;99.90;;;;;;5074316;28;20242;-81
2022/09/15 00:56:15;;;;;;;0.13;0.13;;;18.60;99.90;;;;;;5073790;28;20199;-81
2022/09/15 00:59:03;;;;;;;0.10;0.10;;;18.70;99.90;;;;;;5072578;28;20186;-80
2022/09/15 01:01:30;;;;;;;0.10;0.10;;;18.70;99.90;;;;;;5073917;28;20224;-80
2022/09/15 01:03:56;;;;;;;0.20;0.20;;;18.70;99.90;;;;;;5073498;28;20600;-81
2022/09/15 01:06:30;;;;;;;0.20;0.20;;;18.70;99.90;;;;;;5074409;28;20181;-81
2022/09/15 01:08:59;;;;;;;0.27;0.27;;;18.80;99.90;;;;;;5075265;28;20212;-81
2022/09/15 01:11:25;;;;;;;0.20;0.20;;;18.80;99.90;;;;;;5076219;28;20181;-80
2022/09/15 01:13:51;;;;;;;0.20;0.20;;;18.80;99.90;;;;;;5075519;28;20207;-80
2022/09/15 01:16:44;;;;;;;0.10;0.10;;;18.70;99.90;;;;;;5074843;28;20180;-80
2022/09/15 01:19:21;;;;;;;0.10;0.10;;;18.70;99.90;;;;;;5078392;28;20173;-80
2022/09/15 01:21:53;;;;;;;0.10;0.10;;;18.70;99.90;;;;;;5076398;28;20655;-81
2022/09/15 01:24:41;;;;;;;0.10;0.10;;;18.60;99.90;;;;;;5076700;28;20203;-81
2022/09/15 01:27:32;;;;;;;0.10;0.10;;;18.60;99.90;;;;;;5076080;28;20226;-80
2022/09/15 01:30:13;;;;;;;0.30;0.30;;;18.60;99.90;;;;;;5075322;28;20182;-81
2022/09/15 01:33:20;;;;;;;0.43;0.20;;;18.60;99.90;;;;;;5074464;28;20238;-80
2022/09/15 01:35:57;;;;;;;0.20;0.20;;;18.60;99.90;;;;;;5074783;28;20188;-81
2022/09/15 01:38:29;;;;;;;0.20;0.20;;;18.50;99.90;;;;;;5073274;28;20177;-81
2022/09/15 01:41:00;;;;;;;0.20;0.20;;;18.40;99.90;;;;;;5074156;28;20248;-80
2022/09/15 01:43:28;;;;;;;0.10;0.10;;;18.40;99.90;;;;;;5071336;28;20602;-81
2022/09/15 01:45:55;;;;;;;0.40;0.20;;;18.40;99.90;;;;;;5074922;28;20186;-80
2022/09/15 01:48:24;;;;;;;0.10;0.10;;;18.40;99.90;;;;;;5075054;28;20180;-80
2022/09/15 01:50:55;;;;;;;0.40;0.40;;;18.30;99.90;;;;;;5080138;28;20198;-80
2022/09/15 01:53:22;;;;;;;0.10;0.10;;;18.30;99.90;;;;;;5072344;28;20556;-81
2022/09/15 01:56:09;;;;;;;0.20;0.20;;;18.30;99.90;;;;;;5075370;28;20181;-80
2022/09/15 01:58:36;;;;;;;0.10;0.10;;;18.10;99.90;;;;;;5074166;28;20315;-80
2022/09/15 02:01:17;;;;;;;1.60;0.40;;;18.00;99.90;;;;;;5075172;28;20188;-81
2022/09/15 02:03:54;;;;;;;0.20;0.20;;;18.20;99.90;;;;;;5070529;28;20204;-81
2022/09/15 02:06:46;;;;;;;0.27;0.27;;;18.20;99.90;;;;;;5072802;28;20207;-81
2022/09/15 02:09:18;;;;;;;0.10;0.10;;;18.30;99.90;;;;;;5073710;28;20188;-81
2022/09/15 02:12:01;;;;;;;0.10;0.10;;;18.40;99.90;;;;;;5072537;28;20188;-80
2022/09/15 02:14:51;;;;;;;0.10;0.10;;;18.20;99.90;;;;;;5080699;28;20310;-80
2022/09/15 02:17:19;;;;;;;0.20;0.20;;;18.10;99.90;;;;;;5071487;28;20177;-81
2022/09/15 02:19:50;;;;;;;0.20;0.20;;;18.00;99.90;;;;;;5072239;28;20748;-80
2022/09/15 02:22:28;;;;;;;0.20;0.20;;;18.10;99.90;;;;;;5073688;28;20173;-81
2022/09/15 02:24:59;;;;;;;0.10;0.10;;;18.20;99.90;;;;;;5073466;28;20180;-81
2022/09/15 02:27:30;;;;;;;0.23;0.23;;;18.20;99.90;;;;;;5072396;28;20654;-80
2022/09/15 02:30:04;;;;;;;0.20;0.20;;;18.30;99.90;;;;;;5072691;28;20181;-81
2022/09/15 02:32:32;;;;;;;0.10;0.10;;;18.30;99.90;;;;;;5075748;28;20232;-80
2022/09/15 02:35:05;;;;;;;0.10;0.10;;;18.40;99.90;;;;;;5073034;28;20187;-81
2022/09/15 02:37:33;;;;;;;0.10;0.10;;;18.30;99.90;;;;;;5073293;28;20202;-81
2022/09/15 02:40:00;;;;;;;2.30;0.10;;;18.30;99.90;;;;;;5074084;28;20573;-81
2022/09/15 02:42:28;;;;;;;0.10;0.10;;;18.00;99.90;;;;;;5076030;28;20257;-81
2022/09/15 02:44:53;;;;;;;0.10;0.10;;;17.90;99.90;;;;;;5072635;28;20181;-81
2022/09/15 02:47:19;;;;;;;0.20;0.20;;;17.80;99.90;;;;;;5074785;28;21829;-81
2022/09/15 02:49:44;;;;;;;0.10;0.10;;;17.80;99.90;;;;;;5073616;28;20200;-81
2022/09/15 02:52:10;;;;;;;0.10;0.10;;;17.70;99.90;;;;;;5072229;28;20176;-81
2022/09/15 02:54:35;;;;;;;0.10;0.10;;;17.60;99.90;;;;;;5076016;28;20673;-81
2022/09/15 02:57:01;;;;;;;0.10;0.10;;;17.60;99.90;;;;;;5074084;28;20185;-81
2022/09/15 03:00:11;;;;;;;0.47;0.27;;;17.50;99.90;;;;;;5074839;28;20552;-81
2022/09/15 03:02:12;;;;;;;0.20;0.20;;;17.30;99.90;;;;;;5074449;28;20185;-81
2022/09/15 03:04:38;;;;;;;0.20;0.20;;;17.30;99.90;;;;;;5073071;28;21152;-81
2022/09/15 03:07:04;;;;;;;0.63;0.63;;;17.20;99.90;;;;;;5074344;28;20536;-81
2022/09/15 03:09:29;;;;;;;0.17;0.17;;;17.20;99.90;;;;;;5073353;28;20229;-81
2022/09/15 03:11:55;;;;;;;0.83;0.70;;;17.10;99.90;;;;;;5074961;28;20308;-81
2022/09/15 03:14:21;;;;;;;0.73;0.73;;;17.00;99.90;;;;;;5075890;28;20198;-81
2022/09/15 03:16:46;;;;;;;0.47;0.47;;;16.90;99.90;;;;;;5072847;28;20183;-81
2022/09/15 03:19:12;;;;;;;0.40;0.40;;;16.80;99.90;;;;;;5075748;28;20177;-80
2022/09/15 03:21:37;;;;;;;0.60;0.40;;;16.90;99.90;;;;;;5074534;28;20188;-80
2022/09/15 03:24:03;;;;;;;1.67;0.60;;;16.90;99.90;;;;;;5073894;28;20209;-81
2022/09/15 03:26:29;;;;;;;0.50;0.50;;;16.90;99.90;;;;;;5075396;28;20203;-81
2022/09/15 03:28:55;;;;;;;0.77;0.77;;;16.80;99.90;;;;;;5075772;28;20199;-81
2022/09/15 03:31:20;;;;;;;1.07;1.07;;;16.70;99.90;;;;;;5075011;28;20185;-81
2022/09/15 03:33:47;;;;;;;0.40;0.40;;;16.80;99.90;;;;;;5072570;28;20211;-81
2022/09/15 03:36:12;;;;;;;0.73;0.57;;;16.70;99.90;;;;;;5073654;28;20181;-81
2022/09/15 03:38:38;;;;;;;0.67;0.67;;;16.60;99.90;;;;;;5074497;28;20183;-80
2022/09/15 03:41:09;;;;;;;0.60;0.60;;;16.70;99.90;;;;;;5074841;28;20177;-81
2022/09/15 03:43:36;;;;;;;0.50;0.43;;;16.80;99.90;;;;;;5074372;28;20200;-81
2022/09/15 03:46:03;;;;;;;0.43;0.43;;;16.70;99.90;;;;;;5074179;28;20188;-80
2022/09/15 03:48:31;;;;;;;1.23;1.13;;;16.70;99.90;;;;;;5073371;28;20214;-80
2022/09/15 03:50:57;;;;;;;1.27;0.93;;;16.70;99.90;;;;;;5073306;28;20307;-80
2022/09/15 03:53:23;;;;;;;1.23;1.00;;;16.60;99.90;;;;;;5073121;28;20297;-80
2022/09/15 03:55:48;;;;;;;0.87;0.70;;;16.60;99.90;;;;;;5071721;28;20197;-80
2022/09/15 03:58:16;;;;;;;1.30;1.07;;;16.50;99.90;;;;;;5075520;28;20770;-80
2022/09/15 04:00:42;;;;;;;1.20;0.87;;;16.50;99.90;;;;;;5082611;28;20195;-80
2022/09/15 04:03:08;;;;;;;2.63;1.93;;;16.50;99.90;;;;;;5072362;28;20683;-80
2022/09/15 04:05:34;;;;;;;1.03;1.00;;;16.30;99.90;;;;;;5073417;28;20186;-81
2022/09/15 04:08:00;;;;;;;1.93;1.50;;;16.30;99.90;;;;;;5072500;28;20183;-80
2022/09/15 04:10:26;;;;;;;2.77;1.13;;;16.40;99.90;;;;;;5073234;28;20729;-81
2022/09/15 04:12:52;;;;;;;1.93;1.40;;;16.10;99.90;;;;;;5073141;28;20201;-80
2022/09/15 04:15:19;;;;;;;1.40;1.27;;;16.30;99.90;;;;;;5081111;28;20191;-81
2022/09/15 04:17:46;;;;;;;1.37;0.80;;;16.30;99.90;;;;;;5071174;28;20180;-80
2022/09/15 04:20:12;;;;;;;1.60;1.10;;;16.20;99.90;;;;;;5071338;28;20557;-81
2022/09/15 04:22:38;;;;;;;2.63;1.70;;;16.20;99.90;;;;;;5072350;28;20253;-80
2022/09/15 04:25:04;;;;;;;1.27;1.17;;;16.20;99.90;;;;;;5074593;28;21126;-80
2022/09/15 04:27:33;;;;;;;1.30;1.00;;;16.20;99.90;;;;;;5072243;28;20191;-80
2022/09/15 04:29:59;;;;;;;4.90;1.33;;;16.10;99.90;;;;;;5076412;28;20191;-80
2022/09/15 04:32:24;;;;;;;1.27;1.17;;;16.00;99.90;;;;;;5074502;28;20183;-82
2022/09/15 04:34:50;;;;;;;1.40;0.73;;;16.00;99.90;;;;;;5073028;28;20623;-81
2022/09/15 04:37:15;;;;;;;1.87;1.40;;;15.80;99.90;;;;;;5074198;28;20179;-81
2022/09/15 04:39:41;;;;;;;1.33;1.23;;;15.70;99.90;;;;;;5073280;28;20255;-81
2022/09/15 04:42:06;;;;;;;0.70;0.70;;;15.60;99.90;;;;;;5075269;28;20186;-81
2022/09/15 04:44:33;;;;;;;0.77;0.77;;;15.60;99.90;;;;;;5077265;28;20182;-81
2022/09/15 04:46:58;;;;;;;0.30;0.30;;;15.50;99.90;;;;;;5076102;28;20192;-81
2022/09/15 04:49:24;;;;;;;0.77;0.50;;;15.60;99.90;;;;;;5074762;28;20206;-81
2022/09/15 04:51:52;;;;;;;0.53;0.53;;;15.70;99.90;;;;;;5075029;28;20272;-81
2022/09/15 04:54:17;;;;;;;6.87;1.30;;;15.60;99.90;;;;;;5075866;28;20230;-81
2022/09/15 04:56:43;;;;;;;0.87;0.60;;;15.40;99.90;;;;;;5076352;28;20276;-81
2022/09/15 04:59:14;;;;;;;1.20;0.80;;;15.40;99.90;;;;;;5077326;28;20174;-81
2022/09/15 05:01:40;;;;;;;1.43;1.40;;;15.40;99.90;;;;;;5076800;28;20656;-81
2022/09/15 05:04:05;;;;;;;2.90;0.87;;;15.40;99.90;;;;;;5076963;28;20211;-81
2022/09/15 05:06:32;;;;;;;1.23;0.60;;;15.50;99.90;;;;;;5076069;28;20238;-81
2022/09/15 05:08:58;;;;;;;0.67;0.67;;;15.50;99.90;;;;;;5074289;28;20187;-81
2022/09/15 05:11:25;;;;;;;0.50;0.50;;;15.60;99.90;;;;;;5074962;28;20652;-80
2022/09/15 05:13:51;;;;;;;1.03;0.60;;;15.60;99.90;;;;;;5076151;28;20293;-81
2022/09/15 05:16:19;;;;;;;0.70;0.70;;;15.50;99.90;;;;;;5076772;28;20180;-82
2022/09/15 05:18:48;;;;;;;0.47;0.47;;;15.50;99.90;;;;;;5078382;28;20199;-83
2022/09/15 05:21:15;;;;;;;1.17;0.57;;;15.60;99.90;;;;;;5072426;28;20188;-82
2022/09/15 05:23:41;;;;;;;1.13;1.00;;;15.70;99.90;;;;;;5075841;28;20264;-82
2022/09/15 05:26:13;;;;;;;0.60;0.60;;;15.60;99.90;;;;;;5077031;28;20187;-82
2022/09/15 05:28:38;;;;;;;0.20;0.20;;;15.60;99.90;;;;;;5074672;28;20216;-82
2022/09/15 05:31:10;;;;;;;0.50;0.40;;;15.50;99.90;;;;;;5075358;28;20188;-83
2022/09/15 05:33:36;;;;;;;0.73;0.73;;;15.60;99.90;;;;;;5076450;28;20238;-83
2022/09/15 05:36:02;;;;;;;0.30;0.30;;;15.70;99.90;;;;;;5075076;28;20225;-83
2022/09/15 05:38:29;;;;;;;1.33;0.50;;;15.60;99.90;;;;;;5077310;28;20624;-83
2022/09/15 05:41:01;;;;;;;0.50;0.50;;;15.80;99.90;;;;;;5074554;28;20211;-82
2022/09/15 05:43:31;;;;;;;0.53;0.53;;;15.60;99.90;;;;;;5077610;28;20242;-82
2022/09/15 05:45:56;;;;;;;3.13;0.73;;;15.60;99.90;;;;;;5077650;28;20195;-82
2022/09/15 05:48:23;;;;;;;0.30;0.30;;;15.50;99.90;;;;;;5078239;28;20189;-82
2022/09/15 05:50:50;;;;;;;0.20;0.20;;;15.40;99.90;;;;;;5073581;28;20191;-81
2022/09/15 05:53:15;;;;;;;0.20;0.20;;;15.40;99.90;;;;;;5074588;28;20211;-81
2022/09/15 05:55:41;;;;;;;0.30;0.30;;;15.40;99.90;;;;;;5076101;28;20310;-81
2022/09/15 05:58:07;;;;;;;0.40;0.40;;;15.40;99.90;;;;;;5074228;28;20194;-81
2022/09/15 06:00:33;;;;;;;0.57;0.57;;;15.40;99.90;;;;;;5076672;28;20184;-81
2022/09/15 06:02:58;;;;;;;0.70;0.70;;;15.50;99.90;;;;;;5074152;28;20323;-81
2022/09/15 06:05:24;;;;;;;1.40;1.13;;;15.50;99.90;;;;;;5074586;28;21035;-82
2022/09/15 06:07:53;;;;;;;0.30;0.30;;;15.40;99.90;;;;;;5073232;28;20277;-81
2022/09/15 06:10:21;;;;;;;0.67;0.67;;;15.40;99.90;;;;;;5074492;28;20915;-82
2022/09/15 06:12:48;;;;;;;0.33;0.33;;;15.60;99.90;;;;;;5074804;28;20302;-82
2022/09/15 06:15:13;;;;;;;0.20;0.20;;;15.50;99.90;;;;;;5074675;28;20544;-82
2022/09/15 06:17:39;;;;;;;0.20;0.20;;;15.60;99.90;;;;;;5074377;28;20213;-82
2022/09/15 06:20:06;;;;;;;0.33;0.20;;;15.60;99.90;;;;;;5076707;28;20181;-81
2022/09/15 06:22:32;;;;;;;0.33;0.30;;;15.70;99.90;;;;;;5075645;28;20204;-82
2022/09/15 06:24:58;;;;;;;0.20;0.20;;;15.90;99.90;;;;;;5073874;28;20290;-82
2022/09/15 06:27:23;;;;;;;1.43;0.40;;;16.00;99.90;;;;;;5073017;28;20829;-82
2022/09/15 06:29:49;;;;;;;0.30;0.30;;;16.10;99.90;;;;;;5074771;28;20180;-82
2022/09/15 06:32:14;;;;;;;0.10;0.10;;;16.10;99.90;;;;;;5076410;28;20184;-82
2022/09/15 06:34:40;;;;;;;1.20;1.10;;;16.30;99.90;;;;;;5066485;28;20696;-82
2022/09/15 06:37:06;;;;;;;0.20;0.20;;;16.60;99.90;;;;;;5072369;28;20712;-82
2022/09/15 06:39:32;;;;;;;0.40;0.40;;;16.70;99.90;;;;;;5077189;28;20177;-82
2022/09/15 06:41:57;;;;;;;0.50;0.30;;;16.80;99.90;;;;;;5072216;28;20191;-82
2022/09/15 06:44:23;;;;;;;0.23;0.23;;;17.00;99.90;;;;;;5073237;28;20739;-82
2022/09/15 06:46:49;;;;;;;0.20;0.20;;;17.00;99.90;;;;;;5073674;28;20321;-82
2022/09/15 06:49:14;;;;;;;0.73;0.40;;;17.10;99.90;;;;;;5074223;28;20799;-82
2022/09/15 06:51:40;;;;;;;0.63;0.30;;;17.10;99.90;;;;;;5074531;28;20254;-82
2022/09/15 06:54:06;;;;;;;0.40;0.40;;;17.00;99.90;;;;;;5073559;28;20208;-83
2022/09/15 06:56:32;;;;;;;0.30;0.30;;;16.90;99.90;;;;;;5071559;28;20173;-82
2022/09/15 06:58:58;;;;;;;0.30;0.30;;;16.70;99.90;;;;;;5070690;28;20192;-82
2022/09/15 07:01:27;;;;;;;0.20;0.20;;;16.90;99.90;;;;;;5074229;28;20206;-82
2022/09/15 07:03:53;;;;;;;0.50;0.30;;;16.90;99.90;;;;;;5072194;28;20203;-82
2022/09/15 07:06:19;;;;;;;0.53;0.40;;;16.90;99.90;;;;;;5073058;28;20691;-83
2022/09/15 07:08:46;;;;;;;0.20;0.20;;;17.10;99.90;;;;;;5072485;28;20600;-82
2022/09/15 07:11:12;;;;;;;0.37;0.37;;;17.40;99.90;;;;;;5073319;28;20190;-82
2022/09/15 07:13:38;;;;;;;0.50;0.47;;;17.60;99.90;;;;;;5073813;28;20219;-81
2022/09/15 07:16:07;;;;;;;0.50;0.40;;;17.80;99.90;;;;;;5073093;28;20179;-82
2022/09/15 07:18:34;;;;;;;0.17;0.17;;;17.30;99.90;;;;;;5073676;28;20176;-82
2022/09/15 07:21:03;;;;;;;0.30;0.30;;;17.40;99.90;;;;;;5074251;28;20195;-82
2022/09/15 07:23:29;;;;;;;0.10;0.10;;;17.60;99.90;;;;;;5074574;28;20212;-82
2022/09/15 07:26:17;;;;;;;0.27;0.27;;;17.60;99.90;;;;;;5075390;28;20208;-82
2022/09/15 07:28:44;;;;;;;0.20;0.20;;;17.70;99.90;;;;;;5074328;28;20919;-82
2022/09/15 07:31:13;;;;;;;0.70;0.70;;;17.80;99.90;;;;;;5072739;28;20194;-82
2022/09/15 07:33:38;;;;;;;0.23;0.23;;;17.80;99.90;;;;;;5072694;28;20294;-82
2022/09/15 07:36:06;;;;;;;0.20;0.20;;;17.70;99.90;;;;;;5072457;28;20530;-81
2022/09/15 07:38:32;;;;;;;0.30;0.30;;;17.70;99.90;;;;;;5074836;28;20188;-82
2022/09/15 07:41:05;;;;;;;0.40;0.33;;;17.60;99.90;;;;;;5074018;28;20168;-82
2022/09/15 07:43:31;;;;;;;0.37;0.37;;;17.70;99.90;;;;;;5072971;28;20204;-82
2022/09/15 07:45:57;;;;;;;0.83;0.83;;;17.70;99.90;;;;;;5071627;28;20186;-82
2022/09/15 07:48:23;;;;;;;0.57;0.30;;;17.80;99.90;;;;;;5073952;28;20621;-82
2022/09/15 07:50:48;;;;;;;0.10;0.10;;;17.90;99.90;;;;;;5073399;28;20224;-82
2022/09/15 07:53:14;;;;;;;0.37;0.37;;;17.90;99.90;;;;;;5073583;28;20291;-82
2022/09/15 07:55:40;;;;;;;0.40;0.40;;;17.70;99.90;;;;;;5074039;28;20204;-81
2022/09/15 07:58:06;;;;;;;0.50;0.50;;;17.80;99.90;;;;;;5071882;28;20188;-82
2022/09/15 08:00:31;;;;;;;0.40;0.20;;;17.90;99.90;;;;;;5073083;28;20230;-82
2022/09/15 08:02:57;;;;;;;0.87;0.40;;;18.00;99.90;;;;;;5074427;28;20204;-82
2022/09/15 08:05:27;;;;;;;1.20;1.20;;;17.90;99.90;;;;;;5074263;28;20188;-82
2022/09/15 08:07:55;;;;;;;0.27;0.27;;;17.90;99.90;;;;;;5071880;28;20177;-82
2022/09/15 08:10:24;;;;;;;0.70;0.60;;;17.90;99.90;;;;;;5071553;28;20180;-82
2022/09/15 08:12:50;;;;;;;0.13;0.13;;;17.90;99.90;;;;;;5072424;28;20227;-82
2022/09/15 08:15:15;;;;;;;0.30;0.30;;;17.90;99.90;;;;;;5074240;28;20175;-81
2022/09/15 08:17:41;;;;;;;4.07;0.57;;;17.90;99.90;;;;;;5072726;28;20946;-82
2022/09/15 08:20:07;;;;;;;0.37;0.37;;;17.60;99.90;;;;;;5074455;28;20180;-82
2022/09/15 08:22:32;;;;;;;0.60;0.60;;;17.70;99.90;;;;;;5070884;28;20295;-82
2022/09/15 08:24:58;;;;;;;0.30;0.27;;;18.10;99.90;;;;;;5068087;28;20683;-81
2022/09/15 08:27:24;;;;;;;0.63;0.63;;;18.20;99.90;;;;;;5072142;28;20687;-82
2022/09/15 08:29:49;;;;;;;0.60;0.60;;;17.70;99.90;;;;;;5070042;28;20310;-82
2022/09/15 08:32:15;;;;;;;0.60;0.57;;;17.90;99.90;;;;;;5074118;28;20207;-81
2022/09/15 08:34:41;;;;;;;1.23;0.80;;;18.10;99.90;;;;;;5070732;28;20207;-82
2022/09/15 08:37:06;;;;;;;0.73;0.73;;;17.90;99.90;;;;;;5072822;28;20180;-82
2022/09/15 08:39:32;;;;;;;0.53;0.40;;;17.90;99.90;;;;;;5072207;28;20195;-82
2022/09/15 08:42:00;;;;;;;0.50;0.50;;;17.50;99.90;;;;;;5071373;28;20838;-82
2022/09/15 08:44:55;;;;;;;1.07;0.97;;;17.60;99.90;;;;;;5072842;28;20208;-81
2022/09/15 08:47:37;;;;;;;1.50;0.97;;;17.60;99.90;;;;;;5073309;28;20274;-81
2022/09/15 08:50:28;;;;;;;1.60;1.03;;;17.90;99.90;;;;;;5070212;28;20203;-82
2022/09/15 08:53:02;;;;;;;0.53;0.53;;;18.40;99.90;;;;;;5070744;28;20205;-82
2022/09/15 08:55:49;;;;;;;2.10;0.50;;;18.80;99.90;;;;;;5072326;28;20186;-82
2022/09/15 08:58:24;;;;;;;1.23;0.50;;;19.20;99.90;;;;;;5069765;28;20219;-82
2022/09/15 09:01:14;;;;;;;0.47;0.40;;;19.80;99.90;;;;;;5073403;28;20189;-82
2022/09/15 09:03:52;;;;;;;1.20;0.70;;;19.90;99.90;;;;;;5057013;28;20298;-82
2022/09/15 09:06:58;;;;;;;0.33;0.33;;;19.90;99.90;;;;;;5068432;28;20178;-82
2022/09/15 09:09:46;;;;;;;0.50;0.50;;;20.30;99.90;;;;;;5027751;28;20635;-82
2022/09/15 09:12:39;;;;;;;0.83;0.83;;;20.30;99.90;;;;;;5070470;28;20190;-83
2022/09/15 09:15:42;;;;;;;0.53;0.50;;;20.10;99.90;;;;;;5071518;28;20179;-82
2022/09/15 09:18:46;;;;;;;0.30;0.30;;;20.30;99.90;;;;;;5069007;28;20190;-82
2022/09/15 09:21:11;;;;;;;1.23;0.77;;;19.80;99.90;;;;;;5070675;28;20180;-81
2022/09/15 09:23:45;;;;;;;0.80;0.53;;;19.50;99.90;;;;;;5069465;28;20211;-82
2022/09/15 09:26:12;;;;;;;0.50;0.50;;;19.60;99.90;;;;;;5071646;28;20263;-81
2022/09/15 09:28:45;;;;;;;0.93;0.87;;;19.90;99.90;;;;;;5073343;28;20209;-81
2022/09/15 09:31:17;;;;;;;2.60;0.90;;;19.70;99.90;;;;;;5074160;28;20212;-82
2022/09/15 09:33:51;;;;;;;1.30;1.10;;;19.30;99.90;;;;;;5074813;28;20615;-81
2022/09/15 09:36:16;;;;;;;1.50;1.13;;;19.00;99.90;;;;;;5074932;28;20221;-81
2022/09/15 09:38:45;;;;;;;0.53;0.53;;;19.70;99.90;;;;;;5073951;28;21036;-81
2022/09/15 09:41:18;;;;;;;0.37;0.37;;;19.50;99.90;;;;;;5074343;28;20647;-81
2022/09/15 09:43:46;;;;;;;0.83;0.60;;;19.90;99.90;;;;;;5073761;28;20247;-81
2022/09/15 09:46:15;;;;;;;1.07;0.97;;;20.30;99.90;;;;;;5074628;28;20782;-81
2022/09/15 09:48:46;;;;;;;3.13;1.67;;;20.10;99.90;;;;;;5072408;28;20189;-81
2022/09/15 09:51:37;;;;;;;1.27;0.93;;;20.40;99.90;;;;;;5073990;28;20320;-81
2022/09/15 09:54:14;;;;;;;0.90;0.90;;;20.30;99.90;;;;;;5071921;28;20215;-81
2022/09/15 09:56:39;;;;;;;0.57;0.43;;;20.90;99.90;;;;;;5075409;28;20199;-81
2022/09/15 09:59:39;;;;;;;1.33;0.97;;;20.00;99.90;;;;;;5075013;28;20662;-81
2022/09/15 10:02:12;;;;;;;0.63;0.63;;;20.30;99.90;;;;;;5075315;28;20258;-80
2022/09/15 10:04:42;;;;;;;0.70;0.70;;;20.00;99.90;;;;;;5070797;28;20721;-81
2022/09/15 10:07:09;;;;;;;3.50;1.20;;;20.20;99.90;;;;;;5074571;28;20792;-80
2022/09/15 10:09:36;;;;;;;0.60;0.60;;;20.70;99.90;;;;;;5073365;28;20786;-80
2022/09/15 10:12:04;;;;;;;1.00;0.90;;;20.70;99.90;;;;;;5073410;28;20560;-81
2022/09/15 10:14:40;;;;;;;0.97;0.93;;;20.60;99.90;;;;;;5073185;28;20555;-81
2022/09/15 10:17:11;;;;;;;0.67;0.57;;;20.60;99.90;;;;;;5074620;28;20272;-81
2022/09/15 10:19:58;;;;;;;1.40;0.73;;;20.70;99.90;;;;;;5071310;28;20185;-81
2022/09/15 10:22:31;;;;;;;1.27;0.90;;;21.30;99.90;;;;;;5072978;28;20192;-81
2022/09/15 10:24:59;;;;;;;1.07;0.60;;;21.50;99.90;;;;;;5074231;28;20362;-81
2022/09/15 10:27:35;;;;;;;0.60;0.60;;;21.40;99.90;;;;;;5073796;28;20185;-81
2022/09/15 10:30:13;;;;;;;0.33;0.33;;;21.30;99.90;;;;;;5073140;28;20284;-80
2022/09/15 10:32:40;;;;;;;0.60;0.40;;;21.30;99.90;;;;;;5073329;28;20293;-80
2022/09/15 10:35:19;;;;;;;0.70;0.60;;;21.20;99.90;;;;;;5075802;28;20240;-81
2022/09/15 10:37:45;;;;;;;1.07;1.00;;;20.90;99.90;;;;;;5075672;28;20188;-80
2022/09/15 10:40:22;;;;;;;1.20;0.83;;;20.80;99.90;;;;;;5072547;28;20676;-81
2022/09/15 10:42:56;;;;;;;0.50;0.50;;;20.50;99.90;;;;;;5073218;28;20197;-81
2022/09/15 10:45:30;;;;;;;0.60;0.60;;;20.80;99.90;;;;;;5073787;28;20191;-81
2022/09/15 10:48:06;;;;;;;1.53;1.03;;;20.50;99.90;;;;;;5073538;28;20178;-81
2022/09/15 10:50:56;;;;;;;0.83;0.63;;;20.30;99.90;;;;;;5073476;28;20220;-81
2022/09/15 10:53:40;;;;;;;0.67;0.67;;;20.30;99.90;;;;;;5070339;28;20214;-80
2022/09/15 10:56:21;;;;;;;2.10;0.53;;;20.40;99.90;;;;;;5073866;28;20176;-81
2022/09/15 10:59:14;;;;;;;1.10;0.90;;;20.10;99.90;;;;;;5071453;28;20180;-81
2022/09/15 11:01:39;;;;;;;0.63;0.53;;;19.90;99.90;;;;;;5070572;28;20174;-81
2022/09/15 11:04:37;;;;;;;0.70;0.70;;;20.20;99.90;;;;;;5071204;28;20207;-81
2022/09/15 11:07:43;;;;;;;1.67;1.23;;;20.70;99.90;;;;;;5071583;28;21313;-81
2022/09/15 11:10:28;;;;;;;0.60;0.57;;;20.20;99.90;;;;;;5070599;28;20208;-81
2022/09/15 11:13:06;;;;;;;0.80;0.80;;;20.10;99.90;;;;;;5073308;28;20393;-81
2022/09/15 11:15:51;;;;;;;0.73;0.60;;;20.50;99.90;;;;;;5071729;28;20580;-81
2022/09/15 11:18:26;;;;;;;1.60;1.50;;;20.30;99.90;;;;;;5072993;28;20240;-80
2022/09/15 11:20:57;;;;;;;0.77;0.50;;;20.20;99.90;;;;;;5072668;28;20257;-81
2022/09/15 11:23:32;;;;;;;0.93;0.93;;;20.40;99.90;;;;;;5073382;28;20196;-81
2022/09/15 11:26:08;;;;;;;2.57;1.57;;;20.30;99.90;;;;;;5072923;28;20551;-80
2022/09/15 11:28:40;;;;;;;1.30;1.03;;;20.30;99.90;;;;;;5074762;28;20180;-81
2022/09/15 11:31:13;;;;;;;0.80;0.80;;;19.90;99.90;;;;;;5073848;28;20181;-81
2022/09/15 11:33:48;;;;;;;2.80;0.93;;;20.30;99.90;;;;;;5074653;28;20204;-82
2022/09/15 11:36:16;;;;;;;0.80;0.77;;;20.40;99.90;;;;;;5070588;28;20295;-80
2022/09/15 11:38:51;;;;;;;0.70;0.70;;;20.80;99.90;;;;;;5073776;28;20189;-81
2022/09/15 11:41:27;;;;;;;1.00;0.67;;;20.70;99.90;;;;;;5071674;28;20536;-81
2022/09/15 11:44:02;;;;;;;1.40;0.53;;;20.50;99.90;;;;;;5069906;28;20207;-82
2022/09/15 11:46:36;;;;;;;0.30;0.30;;;20.70;99.90;;;;;;5070090;28;20272;-83
2022/09/15 11:49:19;;;;;;;0.90;0.83;;;20.60;99.90;;;;;;5072108;28;20190;-81
2022/09/15 11:51:55;;;;;;;0.37;0.37;;;20.40;99.90;;;;;;5069818;28;20197;-81
2022/09/15 11:54:29;;;;;;;1.20;0.40;;;20.70;99.90;;;;;;5072283;28;20757;-81
2022/09/15 11:56:55;;;;;;;0.37;0.37;;;21.00;99.90;;;;;;5072848;28;20236;-80
2022/09/15 11:59:30;;;;;;;0.90;0.83;;;21.40;99.90;;;;;;5070371;28;20184;-81
2022/09/15 12:02:14;;;;;;;2.37;0.63;;;21.60;99.90;;;;;;5070596;28;20187;-81
2022/09/15 12:05:07;;;;;;;0.87;0.70;;;21.70;99.90;;;;;;5070812;28;20245;-81
2022/09/15 12:07:40;;;;;;;2.60;1.10;;;21.50;99.90;;;;;;5061471;28;20203;-80
2022/09/15 12:10:32;;;;;;;0.43;0.43;;;21.20;99.90;;;;;;5072423;28;20185;-81
2022/09/15 12:13:00;;;;;;;1.17;0.53;;;20.80;99.90;;;;;;5070859;28;20814;-81
2022/09/15 12:15:28;;;;;;;0.67;0.57;;;20.50;99.90;;;;;;5072532;28;20186;-81
2022/09/15 12:18:00;;;;;;;0.50;0.50;;;20.50;99.90;;;;;;5072891;28;20215;-81
2022/09/15 12:21:09;;;;;;;0.60;0.43;;;20.40;99.90;;;;;;5072658;28;20204;-81
2022/09/15 12:23:58;;;;;;;0.43;0.43;;;20.40;99.90;;;;;;5047771;28;21219;-80
2022/09/15 12:26:25;;;;;;;0.30;0.30;;;20.30;99.90;;;;;;5070534;28;20181;-81
2022/09/15 12:29:01;;;;;;;0.60;0.50;;;20.20;99.90;;;;;;5073374;28;20181;-80
2022/09/15 12:31:30;;;;;;;0.33;0.33;;;20.10;99.90;;;;;;5071404;28;20355;-81
2022/09/15 12:34:02;;;;;;;0.43;0.43;;;20.10;99.90;;;;;;5072761;28;20758;-81
2022/09/15 12:36:37;;;;;;;0.47;0.37;;;20.10;99.90;;;;;;5071507;28;20267;-81
2022/09/15 12:39:36;;;;;;;1.83;1.13;;;20.10;99.90;;;;;;5072629;28;20198;-81
2022/09/15 12:42:07;;;;;;;1.23;0.50;;;20.20;99.90;;;;;;5016076;28;20184;-80
2022/09/15 12:44:39;;;;;;;0.50;0.50;;;20.30;99.90;;;;;;5087322;28;20226;-81
2022/09/15 12:47:30;;;;;;;0.40;0.40;;;20.30;99.90;;;;;;5070955;28;20232;-81
2022/09/15 12:50:05;;;;;;;0.50;0.50;;;20.80;99.90;;;;;;5071799;28;20326;-81
2022/09/15 12:52:54;;;;;;;0.50;0.50;;;21.60;99.90;;;;;;5070529;28;20208;-81
2022/09/15 12:55:27;;;;;;;0.50;0.50;;;21.20;99.90;;;;;;5069060;28;20195;-81
2022/09/15 12:57:56;;;;;;;1.07;0.67;;;21.00;99.90;;;;;;5089922;28;20736;-80
2022/09/15 13:00:32;;;;;;;0.70;0.70;;;20.30;99.90;;;;;;5070805;28;20184;-81
2022/09/15 13:02:59;;;;;;;0.30;0.30;;;20.50;99.90;;;;;;5074638;28;20195;-81
2022/09/15 13:05:44;;;;;;;0.53;0.43;;;20.80;99.90;;;;;;5075725;28;20185;-81
2022/09/15 13:08:34;;;;;;;0.40;0.40;;;20.80;99.90;;;;;;5074188;28;20184;-82
2022/09/15 13:11:18;;;;;;;1.60;0.70;;;21.10;99.90;;;;;;5075260;28;20180;-82